sensor_id;sensor_type;location;lat;lon;timestamp;temperature;humidity
59881;DHT22;45751;51.380;10.326;2024-03-08T00:01:10;1.90;90.40
59881;DHT22;45751;51.380;10.326;2024-03-08T00:03:36;1.90;90.50
59881;DHT22;45751;51.380;10.326;2024-03-08T00:06:02;1.90;90.50
59881;DHT22;45751;51.380;10.326;2024-03-08T00:08:28;1.80;90.50
59881;DHT22;45751;51.380;10.326;2024-03-08T00:10:54;1.90;90.60
59881;DHT22;45751;51.380;10.326;2024-03-08T00:13:19;1.80;90.70
59881;DHT22;45751;51.380;10.326;2024-03-08T00:15:45;1.80;90.70
59881;DHT22;45751;51.380;10.326;2024-03-08T00:18:11;1.80;90.80
59881;DHT22;45751;51.380;10.326;2024-03-08T00:20:37;1.70;90.80
59881;DHT22;45751;51.380;10.326;2024-03-08T00:23:03;1.70;90.90
59881;DHT22;45751;51.380;10.326;2024-03-08T00:25:29;1.60;90.90
59881;DHT22;45751;51.380;10.326;2024-03-08T00:27:54;1.80;91.00
59881;DHT22;45751;51.380;10.326;2024-03-08T00:30:23;1.60;91.10
59881;DHT22;45751;51.380;10.326;2024-03-08T00:32:50;1.60;91.00
59881;DHT22;45751;51.380;10.326;2024-03-08T00:35:16;1.60;91.10
59881;DHT22;45751;51.380;10.326;2024-03-08T00:37:42;1.60;91.20
59881;DHT22;45751;51.380;10.326;2024-03-08T00:40:08;1.50;91.20
59881;DHT22;45751;51.380;10.326;2024-03-08T00:42:36;1.50;91.20
59881;DHT22;45751;51.380;10.326;2024-03-08T00:45:04;1.50;91.30
59881;DHT22;45751;51.380;10.326;2024-03-08T00:47:30;1.50;91.40
59881;DHT22;45751;51.380;10.326;2024-03-08T00:49:56;1.50;91.40
59881;DHT22;45751;51.380;10.326;2024-03-08T00:52:22;1.40;91.50
59881;DHT22;45751;51.380;10.326;2024-03-08T00:54:49;1.40;91.60
59881;DHT22;45751;51.380;10.326;2024-03-08T00:57:15;1.40;91.70
59881;DHT22;45751;51.380;10.326;2024-03-08T00:59:41;1.40;91.80
59881;DHT22;45751;51.380;10.326;2024-03-08T01:02:07;1.30;91.90
59881;DHT22;45751;51.380;10.326;2024-03-08T01:04:34;1.40;92.00
59881;DHT22;45751;51.380;10.326;2024-03-08T01:07:01;1.30;92.10
59881;DHT22;45751;51.380;10.326;2024-03-08T01:09:27;1.20;92.30
59881;DHT22;45751;51.380;10.326;2024-03-08T01:11:56;1.20;92.40
59881;DHT22;45751;51.380;10.326;2024-03-08T01:14:25;1.30;92.50
59881;DHT22;45751;51.380;10.326;2024-03-08T01:16:54;1.20;92.50
59881;DHT22;45751;51.380;10.326;2024-03-08T01:19:20;1.20;92.60
59881;DHT22;45751;51.380;10.326;2024-03-08T01:21:46;1.30;92.70
59881;DHT22;45751;51.380;10.326;2024-03-08T01:24:12;1.20;92.70
59881;DHT22;45751;51.380;10.326;2024-03-08T01:26:38;1.20;92.80
59881;DHT22;45751;51.380;10.326;2024-03-08T01:29:04;1.20;92.80
59881;DHT22;45751;51.380;10.326;2024-03-08T01:31:30;1.20;92.80
59881;DHT22;45751;51.380;10.326;2024-03-08T01:33:56;1.30;92.90
59881;DHT22;45751;51.380;10.326;2024-03-08T01:36:22;1.20;92.90
59881;DHT22;45751;51.380;10.326;2024-03-08T01:38:49;1.20;92.80
59881;DHT22;45751;51.380;10.326;2024-03-08T01:41:15;1.20;92.80
59881;DHT22;45751;51.380;10.326;2024-03-08T01:43:43;1.10;92.80
59881;DHT22;45751;51.380;10.326;2024-03-08T01:46:10;1.10;92.80
59881;DHT22;45751;51.380;10.326;2024-03-08T01:48:38;1.10;92.80
59881;DHT22;45751;51.380;10.326;2024-03-08T01:51:05;1.10;92.80
59881;DHT22;45751;51.380;10.326;2024-03-08T01:53:32;1.10;92.90
59881;DHT22;45751;51.380;10.326;2024-03-08T01:55:59;1.20;92.80
59881;DHT22;45751;51.380;10.326;2024-03-08T01:58:27;1.10;92.90
59881;DHT22;45751;51.380;10.326;2024-03-08T02:00:54;1.10;92.80
59881;DHT22;45751;51.380;10.326;2024-03-08T02:03:21;1.10;92.90
59881;DHT22;45751;51.380;10.326;2024-03-08T02:05:48;1.10;92.90
59881;DHT22;45751;51.380;10.326;2024-03-08T02:08:14;1.10;92.90
59881;DHT22;45751;51.380;10.326;2024-03-08T02:10:46;1.10;92.90
59881;DHT22;45751;51.380;10.326;2024-03-08T02:13:12;1.10;92.90
59881;DHT22;45751;51.380;10.326;2024-03-08T02:15:58;1.00;93.00
59881;DHT22;45751;51.380;10.326;2024-03-08T02:18:28;1.00;93.00
59881;DHT22;45751;51.380;10.326;2024-03-08T02:21:02;1.00;93.10
59881;DHT22;45751;51.380;10.326;2024-03-08T02:23:28;1.00;93.30
59881;DHT22;45751;51.380;10.326;2024-03-08T02:25:55;0.90;93.40
59881;DHT22;45751;51.380;10.326;2024-03-08T02:28:22;0.90;93.40
59881;DHT22;45751;51.380;10.326;2024-03-08T02:30:49;0.90;93.40
59881;DHT22;45751;51.380;10.326;2024-03-08T02:33:17;0.80;93.50
59881;DHT22;45751;51.380;10.326;2024-03-08T02:35:47;0.80;93.60
59881;DHT22;45751;51.380;10.326;2024-03-08T02:38:20;0.80;93.70
59881;DHT22;45751;51.380;10.326;2024-03-08T02:40:47;0.70;93.80
59881;DHT22;45751;51.380;10.326;2024-03-08T02:43:14;0.60;94.00
59881;DHT22;45751;51.380;10.326;2024-03-08T02:45:40;0.70;94.10
59881;DHT22;45751;51.380;10.326;2024-03-08T02:48:07;0.70;94.20
59881;DHT22;45751;51.380;10.326;2024-03-08T02:50:34;0.70;94.30
59881;DHT22;45751;51.380;10.326;2024-03-08T02:53:03;0.70;94.40
59881;DHT22;45751;51.380;10.326;2024-03-08T02:55:29;0.70;94.50
59881;DHT22;45751;51.380;10.326;2024-03-08T02:57:56;0.60;94.40
59881;DHT22;45751;51.380;10.326;2024-03-08T03:00:22;0.70;94.60
59881;DHT22;45751;51.380;10.326;2024-03-08T03:02:52;0.60;94.60
59881;DHT22;45751;51.380;10.326;2024-03-08T03:05:22;0.60;94.60
59881;DHT22;45751;51.380;10.326;2024-03-08T03:07:49;0.60;94.70
59881;DHT22;45751;51.380;10.326;2024-03-08T03:10:16;0.60;94.80
59881;DHT22;45751;51.380;10.326;2024-03-08T03:12:42;0.50;94.80
59881;DHT22;45751;51.380;10.326;2024-03-08T03:15:08;0.50;94.90
59881;DHT22;45751;51.380;10.326;2024-03-08T03:17:35;0.60;95.00
59881;DHT22;45751;51.380;10.326;2024-03-08T03:20:01;0.50;95.10
59881;DHT22;45751;51.380;10.326;2024-03-08T03:22:39;0.50;95.10
59881;DHT22;45751;51.380;10.326;2024-03-08T03:25:12;0.50;95.20
59881;DHT22;45751;51.380;10.326;2024-03-08T03:27:38;0.40;95.20
59881;DHT22;45751;51.380;10.326;2024-03-08T03:30:06;0.40;95.30
59881;DHT22;45751;51.380;10.326;2024-03-08T03:32:50;0.30;95.30
59881;DHT22;45751;51.380;10.326;2024-03-08T03:35:21;0.30;95.40
59881;DHT22;45751;51.380;10.326;2024-03-08T03:37:47;0.30;95.60
59881;DHT22;45751;51.380;10.326;2024-03-08T03:40:35;0.30;95.60
59881;DHT22;45751;51.380;10.326;2024-03-08T03:43:02;0.20;95.70
59881;DHT22;45751;51.380;10.326;2024-03-08T03:45:28;0.20;95.80
59881;DHT22;45751;51.380;10.326;2024-03-08T03:47:54;0.10;95.80
59881;DHT22;45751;51.380;10.326;2024-03-08T03:50:21;0.10;95.90
59881;DHT22;45751;51.380;10.326;2024-03-08T03:52:47;0.10;96.00
59881;DHT22;45751;51.380;10.326;2024-03-08T03:55:14;0.10;96.00
59881;DHT22;45751;51.380;10.326;2024-03-08T03:57:40;0.00;96.00
59881;DHT22;45751;51.380;10.326;2024-03-08T04:00:07;0.00;96.10
59881;DHT22;45751;51.380;10.326;2024-03-08T04:02:40;0.00;96.10
59881;DHT22;45751;51.380;10.326;2024-03-08T04:05:07;-0.10;96.10
59881;DHT22;45751;51.380;10.326;2024-03-08T04:07:34;-0.10;96.30
59881;DHT22;45751;51.380;10.326;2024-03-08T04:10:01;-0.10;96.30
59881;DHT22;45751;51.380;10.326;2024-03-08T04:12:27;-0.20;96.40
59881;DHT22;45751;51.380;10.326;2024-03-08T04:14:54;-0.10;96.50
59881;DHT22;45751;51.380;10.326;2024-03-08T04:17:21;-0.20;96.50
59881;DHT22;45751;51.380;10.326;2024-03-08T04:19:47;-0.20;96.50
59881;DHT22;45751;51.380;10.326;2024-03-08T04:22:14;-0.20;96.60
59881;DHT22;45751;51.380;10.326;2024-03-08T04:24:40;-0.20;96.60
59881;DHT22;45751;51.380;10.326;2024-03-08T04:27:06;-0.20;96.70
59881;DHT22;45751;51.380;10.326;2024-03-08T04:29:32;-0.20;96.70
59881;DHT22;45751;51.380;10.326;2024-03-08T04:32:01;-0.20;96.90
59881;DHT22;45751;51.380;10.326;2024-03-08T04:34:29;-0.20;96.90
59881;DHT22;45751;51.380;10.326;2024-03-08T04:36:57;-0.20;97.00
59881;DHT22;45751;51.380;10.326;2024-03-08T04:39:23;-0.30;97.00
59881;DHT22;45751;51.380;10.326;2024-03-08T04:41:49;-0.30;97.20
59881;DHT22;45751;51.380;10.326;2024-03-08T04:44:16;-0.30;97.20
59881;DHT22;45751;51.380;10.326;2024-03-08T04:46:43;-0.30;97.20
59881;DHT22;45751;51.380;10.326;2024-03-08T04:49:09;-0.30;97.40
59881;DHT22;45751;51.380;10.326;2024-03-08T04:51:37;-0.30;97.40
59881;DHT22;45751;51.380;10.326;2024-03-08T04:54:03;-0.30;97.50
59881;DHT22;45751;51.380;10.326;2024-03-08T04:56:30;-0.30;97.50
59881;DHT22;45751;51.380;10.326;2024-03-08T04:58:56;-0.30;97.60
59881;DHT22;45751;51.380;10.326;2024-03-08T05:01:22;-0.40;97.70
59881;DHT22;45751;51.380;10.326;2024-03-08T05:03:47;-0.40;97.70
59881;DHT22;45751;51.380;10.326;2024-03-08T05:06:16;-0.40;97.80
59881;DHT22;45751;51.380;10.326;2024-03-08T05:08:42;-0.40;97.90
59881;DHT22;45751;51.380;10.326;2024-03-08T05:11:07;-0.40;97.90
59881;DHT22;45751;51.380;10.326;2024-03-08T05:13:33;-0.40;97.90
59881;DHT22;45751;51.380;10.326;2024-03-08T05:16:03;-0.40;97.90
59881;DHT22;45751;51.380;10.326;2024-03-08T05:18:29;-0.40;97.90
59881;DHT22;45751;51.380;10.326;2024-03-08T05:20:54;-0.40;98.00
59881;DHT22;45751;51.380;10.326;2024-03-08T05:23:20;-0.40;98.10
59881;DHT22;45751;51.380;10.326;2024-03-08T05:25:47;-0.40;98.60
59881;DHT22;45751;51.380;10.326;2024-03-08T05:28:13;-0.70;98.20
59881;DHT22;45751;51.380;10.326;2024-03-08T05:30:39;-0.50;98.30
59881;DHT22;45751;51.380;10.326;2024-03-08T05:33:05;-0.50;98.40
59881;DHT22;45751;51.380;10.326;2024-03-08T05:35:30;-0.60;98.50
59881;DHT22;45751;51.380;10.326;2024-03-08T05:37:58;-0.60;98.60
59881;DHT22;45751;51.380;10.326;2024-03-08T05:40:23;-0.60;98.70
59881;DHT22;45751;51.380;10.326;2024-03-08T05:42:49;-0.60;98.80
59881;DHT22;45751;51.380;10.326;2024-03-08T05:45:15;-0.60;99.00
59881;DHT22;45751;51.380;10.326;2024-03-08T05:47:41;-0.60;99.20
59881;DHT22;45751;51.380;10.326;2024-03-08T05:50:08;-0.60;99.30
59881;DHT22;45751;51.380;10.326;2024-03-08T05:52:36;-0.60;99.50
59881;DHT22;45751;51.380;10.326;2024-03-08T05:55:04;-0.60;99.70
59881;DHT22;45751;51.380;10.326;2024-03-08T05:57:33;-0.60;99.70
59881;DHT22;45751;51.380;10.326;2024-03-08T05:59:58;-0.60;99.90
59881;DHT22;45751;51.380;10.326;2024-03-08T06:02:24;-0.50;99.90
59881;DHT22;45751;51.380;10.326;2024-03-08T06:04:52;-0.50;99.90
59881;DHT22;45751;51.380;10.326;2024-03-08T06:07:18;-0.50;99.90
59881;DHT22;45751;51.380;10.326;2024-03-08T06:09:45;-0.50;99.90
59881;DHT22;45751;51.380;10.326;2024-03-08T06:12:13;-0.50;99.90
59881;DHT22;45751;51.380;10.326;2024-03-08T06:14:47;-0.50;99.90
59881;DHT22;45751;51.380;10.326;2024-03-08T06:17:13;-0.50;99.90
59881;DHT22;45751;51.380;10.326;2024-03-08T06:19:41;-0.40;99.90
59881;DHT22;45751;51.380;10.326;2024-03-08T06:22:07;-0.40;99.90
59881;DHT22;45751;51.380;10.326;2024-03-08T06:24:34;-0.50;99.90
59881;DHT22;45751;51.380;10.326;2024-03-08T06:27:02;-0.40;99.90
59881;DHT22;45751;51.380;10.326;2024-03-08T06:29:28;-0.40;99.90
59881;DHT22;45751;51.380;10.326;2024-03-08T06:31:53;-0.30;99.90
59881;DHT22;45751;51.380;10.326;2024-03-08T06:34:19;-0.40;99.90
59881;DHT22;45751;51.380;10.326;2024-03-08T06:36:45;-0.30;99.90
59881;DHT22;45751;51.380;10.326;2024-03-08T06:39:11;-0.30;99.90
59881;DHT22;45751;51.380;10.326;2024-03-08T06:41:37;-0.30;99.90
59881;DHT22;45751;51.380;10.326;2024-03-08T06:44:03;-0.20;99.90
59881;DHT22;45751;51.380;10.326;2024-03-08T06:46:28;-0.30;99.90
59881;DHT22;45751;51.380;10.326;2024-03-08T06:48:54;-0.30;99.90
59881;DHT22;45751;51.380;10.326;2024-03-08T06:51:21;-0.40;99.90
59881;DHT22;45751;51.380;10.326;2024-03-08T06:53:47;-0.30;99.90
59881;DHT22;45751;51.380;10.326;2024-03-08T06:56:14;-0.30;99.90
59881;DHT22;45751;51.380;10.326;2024-03-08T06:58:41;-0.30;99.90
59881;DHT22;45751;51.380;10.326;2024-03-08T07:01:07;-0.30;99.90
59881;DHT22;45751;51.380;10.326;2024-03-08T07:03:41;-0.20;99.90
59881;DHT22;45751;51.380;10.326;2024-03-08T07:06:10;-0.20;99.90
59881;DHT22;45751;51.380;10.326;2024-03-08T07:08:36;-0.10;99.90
59881;DHT22;45751;51.380;10.326;2024-03-08T07:11:02;-0.20;99.90
59881;DHT22;45751;51.380;10.326;2024-03-08T07:13:29;-0.20;99.90
59881;DHT22;45751;51.380;10.326;2024-03-08T07:15:55;-0.10;99.90
59881;DHT22;45751;51.380;10.326;2024-03-08T07:18:21;-0.20;99.90
59881;DHT22;45751;51.380;10.326;2024-03-08T07:20:47;-0.10;99.90
59881;DHT22;45751;51.380;10.326;2024-03-08T07:23:14;-0.10;99.90
59881;DHT22;45751;51.380;10.326;2024-03-08T07:26:00;-0.10;99.90
59881;DHT22;45751;51.380;10.326;2024-03-08T07:28:27;-0.10;99.90
59881;DHT22;45751;51.380;10.326;2024-03-08T07:30:53;0.10;99.90
59881;DHT22;45751;51.380;10.326;2024-03-08T07:33:27;0.00;99.90
59881;DHT22;45751;51.380;10.326;2024-03-08T07:35:53;0.00;99.90
59881;DHT22;45751;51.380;10.326;2024-03-08T07:38:18;0.10;99.90
59881;DHT22;45751;51.380;10.326;2024-03-08T07:40:46;0.10;99.90
59881;DHT22;45751;51.380;10.326;2024-03-08T07:43:13;0.20;99.90
59881;DHT22;45751;51.380;10.326;2024-03-08T07:45:39;0.20;99.90
59881;DHT22;45751;51.380;10.326;2024-03-08T07:48:06;0.20;99.90
59881;DHT22;45751;51.380;10.326;2024-03-08T07:50:39;0.20;99.90
59881;DHT22;45751;51.380;10.326;2024-03-08T07:53:06;0.20;99.90
59881;DHT22;45751;51.380;10.326;2024-03-08T07:55:33;0.30;99.90
59881;DHT22;45751;51.380;10.326;2024-03-08T07:57:59;0.30;99.90
59881;DHT22;45751;51.380;10.326;2024-03-08T08:00:25;0.30;99.90
59881;DHT22;45751;51.380;10.326;2024-03-08T08:02:53;0.40;99.90
59881;DHT22;45751;51.380;10.326;2024-03-08T08:05:19;0.40;99.90
59881;DHT22;45751;51.380;10.326;2024-03-08T08:07:46;0.40;99.90
59881;DHT22;45751;51.380;10.326;2024-03-08T08:10:12;0.50;99.90
59881;DHT22;45751;51.380;10.326;2024-03-08T08:12:44;0.50;99.90
59881;DHT22;45751;51.380;10.326;2024-03-08T08:15:11;0.60;99.90
59881;DHT22;45751;51.380;10.326;2024-03-08T08:17:38;0.60;99.90
59881;DHT22;45751;51.380;10.326;2024-03-08T08:20:04;0.60;99.90
59881;DHT22;45751;51.380;10.326;2024-03-08T08:22:31;0.70;99.90
59881;DHT22;45751;51.380;10.326;2024-03-08T08:24:57;0.70;99.90
59881;DHT22;45751;51.380;10.326;2024-03-08T08:27:22;0.80;99.90
59881;DHT22;45751;51.380;10.326;2024-03-08T08:29:48;0.80;99.90
59881;DHT22;45751;51.380;10.326;2024-03-08T08:32:15;0.80;99.90
59881;DHT22;45751;51.380;10.326;2024-03-08T08:34:41;0.90;99.90
59881;DHT22;45751;51.380;10.326;2024-03-08T08:37:08;0.90;99.90
59881;DHT22;45751;51.380;10.326;2024-03-08T08:39:35;1.00;99.90
59881;DHT22;45751;51.380;10.326;2024-03-08T08:42:01;1.00;99.90
59881;DHT22;45751;51.380;10.326;2024-03-08T08:44:28;1.00;99.90
59881;DHT22;45751;51.380;10.326;2024-03-08T08:46:54;1.10;99.90
59881;DHT22;45751;51.380;10.326;2024-03-08T08:49:19;1.10;99.90
59881;DHT22;45751;51.380;10.326;2024-03-08T08:51:49;1.20;99.90
59881;DHT22;45751;51.380;10.326;2024-03-08T08:54:16;1.20;99.90
59881;DHT22;45751;51.380;10.326;2024-03-08T08:56:43;1.20;99.90
59881;DHT22;45751;51.380;10.326;2024-03-08T08:59:13;1.30;99.90
59881;DHT22;45751;51.380;10.326;2024-03-08T09:01:45;1.30;99.90
59881;DHT22;45751;51.380;10.326;2024-03-08T09:04:14;1.40;99.90
59881;DHT22;45751;51.380;10.326;2024-03-08T09:06:39;1.40;99.90
59881;DHT22;45751;51.380;10.326;2024-03-08T09:09:09;1.40;99.90
59881;DHT22;45751;51.380;10.326;2024-03-08T09:11:37;1.50;99.90
59881;DHT22;45751;51.380;10.326;2024-03-08T09:14:07;1.50;99.90
59881;DHT22;45751;51.380;10.326;2024-03-08T09:16:34;1.60;99.90
59881;DHT22;45751;51.380;10.326;2024-03-08T09:19:00;1.60;99.90
59881;DHT22;45751;51.380;10.326;2024-03-08T09:21:26;1.60;99.90
59881;DHT22;45751;51.380;10.326;2024-03-08T09:23:53;1.70;99.90
59881;DHT22;45751;51.380;10.326;2024-03-08T09:26:19;1.70;99.90
59881;DHT22;45751;51.380;10.326;2024-03-08T09:28:45;1.80;99.90
59881;DHT22;45751;51.380;10.326;2024-03-08T09:31:11;1.80;99.90
59881;DHT22;45751;51.380;10.326;2024-03-08T09:33:37;1.80;99.90
59881;DHT22;45751;51.380;10.326;2024-03-08T09:36:06;1.90;99.90
59881;DHT22;45751;51.380;10.326;2024-03-08T09:38:33;1.90;99.90
59881;DHT22;45751;51.380;10.326;2024-03-08T09:41:00;1.90;99.80
59881;DHT22;45751;51.380;10.326;2024-03-08T09:43:28;1.90;99.70
59881;DHT22;45751;51.380;10.326;2024-03-08T09:45:54;2.00;99.70
59881;DHT22;45751;51.380;10.326;2024-03-08T09:48:22;2.00;99.70
59881;DHT22;45751;51.380;10.326;2024-03-08T09:50:49;2.10;99.70
59881;DHT22;45751;51.380;10.326;2024-03-08T09:53:15;2.20;99.80
59881;DHT22;45751;51.380;10.326;2024-03-08T09:55:42;2.10;99.60
59881;DHT22;45751;51.380;10.326;2024-03-08T09:58:11;2.20;99.50
59881;DHT22;45751;51.380;10.326;2024-03-08T10:00:47;2.30;99.50
59881;DHT22;45751;51.380;10.326;2024-03-08T10:03:13;2.30;99.50
59881;DHT22;45751;51.380;10.326;2024-03-08T10:05:41;2.30;99.50
59881;DHT22;45751;51.380;10.326;2024-03-08T10:08:07;2.30;99.40
59881;DHT22;45751;51.380;10.326;2024-03-08T10:10:34;2.40;99.40
59881;DHT22;45751;51.380;10.326;2024-03-08T10:13:00;2.40;99.40
59881;DHT22;45751;51.380;10.326;2024-03-08T10:15:29;2.40;99.40
59881;DHT22;45751;51.380;10.326;2024-03-08T10:17:56;2.50;99.20
59881;DHT22;45751;51.380;10.326;2024-03-08T10:20:22;2.60;99.00
59881;DHT22;45751;51.380;10.326;2024-03-08T10:22:49;2.60;98.70
59881;DHT22;45751;51.380;10.326;2024-03-08T10:25:15;2.70;98.70
59881;DHT22;45751;51.380;10.326;2024-03-08T10:27:41;2.70;98.60
59881;DHT22;45751;51.380;10.326;2024-03-08T10:30:15;2.70;98.60
59881;DHT22;45751;51.380;10.326;2024-03-08T10:32:41;2.80;98.40
59881;DHT22;45751;51.380;10.326;2024-03-08T10:35:08;2.80;98.30
59881;DHT22;45751;51.380;10.326;2024-03-08T10:37:38;3.00;98.70
59881;DHT22;45751;51.380;10.326;2024-03-08T10:40:10;3.00;98.80
59881;DHT22;45751;51.380;10.326;2024-03-08T10:50:41;3.20;97.60
59881;DHT22;45751;51.380;10.326;2024-03-08T10:53:08;3.20;98.00
59881;DHT22;45751;51.380;10.326;2024-03-08T10:55:37;3.20;98.10
59881;DHT22;45751;51.380;10.326;2024-03-08T10:58:04;3.30;97.70
59881;DHT22;45751;51.380;10.326;2024-03-08T11:00:31;3.40;97.50
59881;DHT22;45751;51.380;10.326;2024-03-08T11:02:58;3.40;97.40
59881;DHT22;45751;51.380;10.326;2024-03-08T11:05:39;3.50;97.20
59881;DHT22;45751;51.380;10.326;2024-03-08T11:08:19;3.50;97.30
59881;DHT22;45751;51.380;10.326;2024-03-08T11:10:51;3.50;96.70
59881;DHT22;45751;51.380;10.326;2024-03-08T11:13:38;3.60;96.40
59881;DHT22;45751;51.380;10.326;2024-03-08T11:18:58;3.60;96.60
59881;DHT22;45751;51.380;10.326;2024-03-08T11:21:31;3.60;96.80
59881;DHT22;45751;51.380;10.326;2024-03-08T11:24:07;3.80;96.90
59881;DHT22;45751;51.380;10.326;2024-03-08T11:26:33;3.80;96.90
59881;DHT22;45751;51.380;10.326;2024-03-08T11:32:17;4.00;97.00
59881;DHT22;45751;51.380;10.326;2024-03-08T11:34:48;4.00;96.60
59881;DHT22;45751;51.380;10.326;2024-03-08T11:37:16;4.10;96.50
59881;DHT22;45751;51.380;10.326;2024-03-08T11:39:54;4.10;96.30
59881;DHT22;45751;51.380;10.326;2024-03-08T11:42:25;4.30;95.90
59881;DHT22;45751;51.380;10.326;2024-03-08T11:44:54;4.30;95.30
59881;DHT22;45751;51.380;10.326;2024-03-08T11:47:20;4.40;95.20
59881;DHT22;45751;51.380;10.326;2024-03-08T11:49:46;4.50;95.20
59881;DHT22;45751;51.380;10.326;2024-03-08T11:52:17;4.60;95.20
59881;DHT22;45751;51.380;10.326;2024-03-08T11:54:54;4.60;95.20
59881;DHT22;45751;51.380;10.326;2024-03-08T11:57:23;4.70;95.30
59881;DHT22;45751;51.380;10.326;2024-03-08T11:59:52;4.90;95.40
59881;DHT22;45751;51.380;10.326;2024-03-08T12:02:18;5.00;94.80
59881;DHT22;45751;51.380;10.326;2024-03-08T12:04:45;5.10;94.60
59881;DHT22;45751;51.380;10.326;2024-03-08T12:07:12;5.10;94.40
59881;DHT22;45751;51.380;10.326;2024-03-08T12:09:38;5.20;94.40
59881;DHT22;45751;51.380;10.326;2024-03-08T12:12:09;5.30;94.30
59881;DHT22;45751;51.380;10.326;2024-03-08T12:14:37;5.30;94.10
59881;DHT22;45751;51.380;10.326;2024-03-08T12:17:04;5.40;93.60
59881;DHT22;45751;51.380;10.326;2024-03-08T12:19:31;5.40;92.70
59881;DHT22;45751;51.380;10.326;2024-03-08T12:21:56;5.40;92.50
59881;DHT22;45751;51.380;10.326;2024-03-08T12:24:22;5.40;92.40
59881;DHT22;45751;51.380;10.326;2024-03-08T12:26:54;5.40;92.40
59881;DHT22;45751;51.380;10.326;2024-03-08T12:29:26;5.40;92.70
59881;DHT22;45751;51.380;10.326;2024-03-08T12:31:54;5.50;92.60
59881;DHT22;45751;51.380;10.326;2024-03-08T12:34:21;5.50;92.20
59881;DHT22;45751;51.380;10.326;2024-03-08T12:36:48;5.50;91.80
59881;DHT22;45751;51.380;10.326;2024-03-08T12:39:18;5.50;91.30
59881;DHT22;45751;51.380;10.326;2024-03-08T12:41:48;5.40;91.20
59881;DHT22;45751;51.380;10.326;2024-03-08T12:44:17;5.40;91.40
59881;DHT22;45751;51.380;10.326;2024-03-08T12:46:44;5.40;91.70
59881;DHT22;45751;51.380;10.326;2024-03-08T12:49:10;5.40;91.70
59881;DHT22;45751;51.380;10.326;2024-03-08T12:51:38;5.40;91.60
59881;DHT22;45751;51.380;10.326;2024-03-08T12:54:05;5.50;91.60
59881;DHT22;45751;51.380;10.326;2024-03-08T12:56:34;5.60;91.70
59881;DHT22;45751;51.380;10.326;2024-03-08T12:59:00;5.70;92.20
59881;DHT22;45751;51.380;10.326;2024-03-08T13:01:27;5.80;91.20
59881;DHT22;45751;51.380;10.326;2024-03-08T13:03:55;5.90;90.80
59881;DHT22;45751;51.380;10.326;2024-03-08T13:06:21;6.00;90.80
59881;DHT22;45751;51.380;10.326;2024-03-08T13:08:53;6.10;90.50
59881;DHT22;45751;51.380;10.326;2024-03-08T13:11:19;6.40;90.50
59881;DHT22;45751;51.380;10.326;2024-03-08T13:13:46;6.50;90.30
59881;DHT22;45751;51.380;10.326;2024-03-08T13:16:12;6.70;89.70
59881;DHT22;45751;51.380;10.326;2024-03-08T13:18:41;6.80;88.50
59881;DHT22;45751;51.380;10.326;2024-03-08T13:21:10;7.00;88.70
59881;DHT22;45751;51.380;10.326;2024-03-08T13:23:38;7.20;87.30
59881;DHT22;45751;51.380;10.326;2024-03-08T13:26:11;7.30;85.70
59881;DHT22;45751;51.380;10.326;2024-03-08T13:28:46;7.50;84.90
59881;DHT22;45751;51.380;10.326;2024-03-08T13:31:12;7.70;84.10
59881;DHT22;45751;51.380;10.326;2024-03-08T13:33:38;7.90;83.30
59881;DHT22;45751;51.380;10.326;2024-03-08T13:36:10;8.10;81.40
59881;DHT22;45751;51.380;10.326;2024-03-08T13:38:42;8.20;80.10
59881;DHT22;45751;51.380;10.326;2024-03-08T13:41:12;8.40;79.00
59881;DHT22;45751;51.380;10.326;2024-03-08T13:43:40;8.50;77.50
59881;DHT22;45751;51.380;10.326;2024-03-08T13:46:06;8.60;77.20
59881;DHT22;45751;51.380;10.326;2024-03-08T13:48:33;8.70;74.80
59881;DHT22;45751;51.380;10.326;2024-03-08T13:50:59;8.70;73.40
59881;DHT22;45751;51.380;10.326;2024-03-08T13:53:26;8.80;72.10
59881;DHT22;45751;51.380;10.326;2024-03-08T13:55:52;8.90;70.60
59881;DHT22;45751;51.380;10.326;2024-03-08T13:58:18;9.00;70.60
59881;DHT22;45751;51.380;10.326;2024-03-08T14:00:46;9.00;70.40
59881;DHT22;45751;51.380;10.326;2024-03-08T14:03:13;9.20;69.60
59881;DHT22;45751;51.380;10.326;2024-03-08T14:05:40;9.30;68.70
59881;DHT22;45751;51.380;10.326;2024-03-08T14:08:07;9.40;68.70
59881;DHT22;45751;51.380;10.326;2024-03-08T14:10:34;9.50;67.90
59881;DHT22;45751;51.380;10.326;2024-03-08T14:13:00;9.70;67.70
59881;DHT22;45751;51.380;10.326;2024-03-08T14:15:28;9.70;67.10
59881;DHT22;45751;51.380;10.326;2024-03-08T14:17:55;9.80;66.40
59881;DHT22;45751;51.380;10.326;2024-03-08T14:20:22;9.80;64.50
59881;DHT22;45751;51.380;10.326;2024-03-08T14:22:52;9.90;63.90
59881;DHT22;45751;51.380;10.326;2024-03-08T14:25:18;10.00;63.60
59881;DHT22;45751;51.380;10.326;2024-03-08T14:27:44;10.10;64.00
59881;DHT22;45751;51.380;10.326;2024-03-08T14:30:11;10.20;63.60
59881;DHT22;45751;51.380;10.326;2024-03-08T14:32:37;10.20;62.80
59881;DHT22;45751;51.380;10.326;2024-03-08T14:35:05;10.30;62.70
59881;DHT22;45751;51.380;10.326;2024-03-08T14:37:31;10.30;62.10
59881;DHT22;45751;51.380;10.326;2024-03-08T14:39:57;10.30;61.90
59881;DHT22;45751;51.380;10.326;2024-03-08T14:42:23;10.40;61.60
59881;DHT22;45751;51.380;10.326;2024-03-08T14:44:48;10.40;61.10
59881;DHT22;45751;51.380;10.326;2024-03-08T14:47:19;10.40;61.60
59881;DHT22;45751;51.380;10.326;2024-03-08T14:49:45;10.40;61.70
59881;DHT22;45751;51.380;10.326;2024-03-08T14:52:14;10.50;61.70
59881;DHT22;45751;51.380;10.326;2024-03-08T14:54:58;10.60;61.20
59881;DHT22;45751;51.380;10.326;2024-03-08T14:57:24;10.70;60.80
59881;DHT22;45751;51.380;10.326;2024-03-08T14:59:49;10.70;60.50
59881;DHT22;45751;51.380;10.326;2024-03-08T15:02:15;10.80;60.10
59881;DHT22;45751;51.380;10.326;2024-03-08T15:04:46;10.90;59.60
59881;DHT22;45751;51.380;10.326;2024-03-08T15:07:18;10.90;59.10
59881;DHT22;45751;51.380;10.326;2024-03-08T15:09:44;11.00;58.20
59881;DHT22;45751;51.380;10.326;2024-03-08T15:12:09;11.00;57.90
59881;DHT22;45751;51.380;10.326;2024-03-08T15:14:40;11.00;58.20
59881;DHT22;45751;51.380;10.326;2024-03-08T15:17:05;11.00;57.90
59881;DHT22;45751;51.380;10.326;2024-03-08T15:19:36;11.10;57.60
59881;DHT22;45751;51.380;10.326;2024-03-08T15:22:03;11.10;57.80
59881;DHT22;45751;51.380;10.326;2024-03-08T15:24:29;11.10;58.00
59881;DHT22;45751;51.380;10.326;2024-03-08T15:26:55;11.20;58.00
59881;DHT22;45751;51.380;10.326;2024-03-08T15:29:22;11.30;57.70
59881;DHT22;45751;51.380;10.326;2024-03-08T15:31:52;11.30;58.00
59881;DHT22;45751;51.380;10.326;2024-03-08T15:34:20;11.40;57.30
59881;DHT22;45751;51.380;10.326;2024-03-08T15:36:49;11.40;57.00
59881;DHT22;45751;51.380;10.326;2024-03-08T15:39:17;11.40;56.60
59881;DHT22;45751;51.380;10.326;2024-03-08T15:41:46;11.50;58.00